createdAt,value
2022-11-05T00:02:11.560Z,11.60
2022-11-05T00:07:40.493Z,10.40
2022-11-05T00:13:02.301Z,8.20
2022-11-05T00:18:05.188Z,10.30
2022-11-05T00:23:27.023Z,11.00
2022-11-05T00:28:31.098Z,10.50
2022-11-05T00:33:33.913Z,8.90
2022-11-05T00:38:37.661Z,10.90
2022-11-05T00:43:59.248Z,8.80
2022-11-05T00:49:20.399Z,8.30
2022-11-05T00:54:23.199Z,11.10
2022-11-05T00:59:26.014Z,9.10
2022-11-05T01:04:28.852Z,9.90
2022-11-05T01:09:32.207Z,9.50
2022-11-05T01:14:35.395Z,10.70
2022-11-05T01:24:42.421Z,8.70
2022-11-05T01:29:45.310Z,10.20
2022-11-05T01:34:48.195Z,10.90
2022-11-05T01:39:51.058Z,9.00
2022-11-05T01:45:09.263Z,7.80
2022-11-05T01:50:43.014Z,7.80
2022-11-05T01:56:18.525Z,11.80
2022-11-05T02:01:22.045Z,9.00
2022-11-05T02:06:27.605Z,10.10
2022-11-05T02:11:30.848Z,10.30
2022-11-05T02:17:04.058Z,10.20
2022-11-05T02:22:21.704Z,10.50
2022-11-05T02:27:36.452Z,9.70
2022-11-05T02:32:55.753Z,11.50
2022-11-05T02:38:09.339Z,10.00
2022-11-05T02:43:29.719Z,8.30
2022-11-05T02:48:58.037Z,9.70
2022-11-05T02:54:20.704Z,10.80
2022-11-05T02:59:23.529Z,9.20
2022-11-05T03:04:26.899Z,9.80
2022-11-05T03:09:35.650Z,10.70
2022-11-05T03:14:54.014Z,10.40
2022-11-05T03:20:05.758Z,10.70
2022-11-05T03:25:15.186Z,9.90
2022-11-05T03:30:19.123Z,9.30
2022-11-05T03:35:29.684Z,10.90
2022-11-05T03:40:36.135Z,10.00
2022-11-05T03:45:46.364Z,9.80
2022-11-05T03:51:01.386Z,10.70
2022-11-05T03:56:13.139Z,9.60
2022-11-05T04:01:16.448Z,10.20
2022-11-05T04:06:38.538Z,8.00
2022-11-05T04:12:00.399Z,11.00
2022-11-05T04:17:09.798Z,11.00
2022-11-05T04:22:31.928Z,12.70
2022-11-05T04:27:35.437Z,11.90
2022-11-05T04:32:38.204Z,10.00
2022-11-05T04:37:41.047Z,11.50
2022-11-05T04:42:43.911Z,13.10
2022-11-05T04:47:46.713Z,10.30
2022-11-05T04:52:49.618Z,10.30
2022-11-05T04:57:54.427Z,12.60
2022-11-05T05:02:57.366Z,12.00
2022-11-05T05:08:04.953Z,11.20
2022-11-05T05:13:10.479Z,11.60
2022-11-05T05:18:13.496Z,13.20
2022-11-05T05:23:16.351Z,11.50
2022-11-05T05:28:19.208Z,11.00
2022-11-05T05:33:22.099Z,13.20
2022-11-05T05:38:25.259Z,12.60
2022-11-05T05:48:34.754Z,12.10
2022-11-05T05:53:38.388Z,14.80
2022-11-05T05:58:41.593Z,13.70
2022-11-05T06:08:48.175Z,14.70
2022-11-05T06:13:51.221Z,16.80
2022-11-05T06:18:54.131Z,15.00
2022-11-05T06:23:57.006Z,13.00
2022-11-05T06:28:59.818Z,15.10
2022-11-05T06:34:02.909Z,15.70
2022-11-05T06:39:09.618Z,15.30
2022-11-05T06:44:12.477Z,13.70
2022-11-05T06:49:15.348Z,16.10
2022-11-05T06:54:18.281Z,15.00
2022-11-05T06:59:21.135Z,15.50
2022-11-05T07:04:23.931Z,16.10
2022-11-05T07:09:28.394Z,17.70
2022-11-05T07:14:31.194Z,15.10
2022-11-05T07:19:34.088Z,16.00
2022-11-05T07:24:37.266Z,14.50
2022-11-05T07:34:43.126Z,16.90
2022-11-05T07:39:45.990Z,15.60
2022-11-05T07:44:48.810Z,14.10
2022-11-05T07:49:51.621Z,19.40
2022-11-05T07:54:54.471Z,18.50
2022-11-05T07:59:57.317Z,18.80
2022-11-05T08:05:00.129Z,18.40
2022-11-05T08:10:04.428Z,18.10
2022-11-05T08:15:08.462Z,21.30
2022-11-05T08:20:12.795Z,20.60
2022-11-05T08:25:15.681Z,17.00
2022-11-05T08:30:18.532Z,21.80
2022-11-05T08:35:21.340Z,22.60
2022-11-05T08:40:24.403Z,22.80
2022-11-05T08:45:27.837Z,21.90
2022-11-05T08:50:32.045Z,23.70
2022-11-05T08:55:35.251Z,25.80
2022-11-05T09:05:43.061Z,21.30
2022-11-05T09:10:47.450Z,23.70
2022-11-05T09:15:51.336Z,22.90
2022-11-05T09:20:54.378Z,21.90
2022-11-05T09:25:57.208Z,24.40
2022-11-05T09:31:00.719Z,24.70
2022-11-05T09:36:04.528Z,22.80
2022-11-05T09:41:17.552Z,22.60
2022-11-05T09:46:24.168Z,24.80
2022-11-05T09:51:27.008Z,23.20
2022-11-05T09:56:33.963Z,22.90
2022-11-05T10:01:38.429Z,22.00
2022-11-05T10:06:49.476Z,23.30
2022-11-05T10:11:59.017Z,21.80
2022-11-05T10:17:11.822Z,24.10
2022-11-05T10:22:17.164Z,22.60
2022-11-05T10:27:29.208Z,23.20
2022-11-05T10:32:38.428Z,23.40
2022-11-05T10:37:41.530Z,22.20
2022-11-05T10:48:43.991Z,22.70
2022-11-05T10:54:01.577Z,24.80
2022-11-05T10:59:20.219Z,25.10
2022-11-05T11:04:26.383Z,25.90
2022-11-05T11:09:33.268Z,25.90
2022-11-05T11:14:36.203Z,19.60
2022-11-05T11:19:39.139Z,22.00
2022-11-05T11:24:45.275Z,25.70
2022-11-05T11:29:54.630Z,27.30
2022-11-05T11:34:58.558Z,24.60
2022-11-05T11:40:29.297Z,22.60
2022-11-05T11:45:36.905Z,24.20
2022-11-05T11:50:45.383Z,25.00
2022-11-05T11:55:59.092Z,21.80
2022-11-05T12:01:31.387Z,25.80
2022-11-05T12:06:59.104Z,25.50
2022-11-05T12:12:14.172Z,24.00
2022-11-05T12:17:19.748Z,23.70
2022-11-05T12:22:50.779Z,19.80
2022-11-05T12:28:12.282Z,19.50
2022-11-05T12:33:33.979Z,16.00
2022-11-05T12:38:53.344Z,17.80
2022-11-05T12:44:24.221Z,16.60
2022-11-05T12:49:44.465Z,18.30
2022-11-05T12:55:05.854Z,19.90
2022-11-05T13:00:18.095Z,15.80
2022-11-05T13:05:39.287Z,21.90
2022-11-05T13:11:11.828Z,22.60
2022-11-05T13:16:26.310Z,23.20
2022-11-05T13:21:30.252Z,21.00
2022-11-05T13:26:44.476Z,19.60
2022-11-05T13:31:59.089Z,18.80
2022-11-05T13:37:23.902Z,20.10
2022-11-05T13:42:26.715Z,22.70
2022-11-05T13:47:54.095Z,21.10
2022-11-05T13:53:02.921Z,19.40
2022-11-05T13:58:28.647Z,21.40
2022-11-05T14:03:31.880Z,21.10
2022-11-05T14:08:46.470Z,22.30
2022-11-05T14:13:54.816Z,19.80
2022-11-05T14:19:19.324Z,23.10
2022-11-05T14:24:22.160Z,22.10
2022-11-05T14:29:25.092Z,20.20
2022-11-05T14:34:55.419Z,25.30
2022-11-05T14:40:22.500Z,30.70
2022-11-05T14:45:34.401Z,27.50
2022-11-05T14:50:40.799Z,21.50
2022-11-05T14:55:44.322Z,18.80
2022-11-05T15:00:48.280Z,22.60
2022-11-05T15:05:53.520Z,16.40
2022-11-05T15:11:18.663Z,18.00
2022-11-05T15:16:30.901Z,23.80
2022-11-05T15:21:38.191Z,21.90
2022-11-05T15:27:04.831Z,26.10
2022-11-05T15:32:17.559Z,20.90
2022-11-05T15:37:24.251Z,22.80
2022-11-05T15:42:27.792Z,24.80
2022-11-05T15:47:36.801Z,26.10
2022-11-05T15:52:54.715Z,26.00
2022-11-05T15:58:05.423Z,38.70
2022-11-05T16:03:22.413Z,35.90
2022-11-05T16:08:28.028Z,27.20
2022-11-05T16:13:30.829Z,18.90
2022-11-05T16:18:37.757Z,18.00
2022-11-05T16:23:43.401Z,14.20
2022-11-05T16:28:51.242Z,13.40
2022-11-05T16:33:54.837Z,12.40
2022-11-05T16:38:58.873Z,12.90
2022-11-05T16:44:03.146Z,15.30
2022-11-05T16:49:06.011Z,19.80
2022-11-05T16:54:08.849Z,12.60
2022-11-05T16:59:13.385Z,12.90
2022-11-05T17:04:16.221Z,15.40
2022-11-05T17:09:19.122Z,14.50
2022-11-05T17:14:21.987Z,19.10
2022-11-05T17:19:24.809Z,25.20
2022-11-05T17:24:27.634Z,22.20
2022-11-05T17:29:30.490Z,18.10
2022-11-05T17:34:33.292Z,16.70
2022-11-05T17:39:36.170Z,16.70
2022-11-05T17:44:38.973Z,20.90
2022-11-05T17:49:41.816Z,21.70
2022-11-05T17:54:44.670Z,18.70
2022-11-05T17:59:47.524Z,22.50
2022-11-05T18:04:50.366Z,21.20
2022-11-05T18:09:53.163Z,19.90
2022-11-05T18:14:55.997Z,15.30
2022-11-05T18:19:58.861Z,14.80
2022-11-05T18:25:01.837Z,15.60
2022-11-05T18:30:05.453Z,18.80
2022-11-05T18:35:08.954Z,16.30
2022-11-05T18:40:12.563Z,16.30
2022-11-05T18:45:15.410Z,15.30
2022-11-05T18:50:18.199Z,15.50
2022-11-05T18:55:21.085Z,17.70
2022-11-05T19:00:23.962Z,23.50
2022-11-05T19:05:29.377Z,18.10
2022-11-05T19:10:32.753Z,29.00
2022-11-05T19:15:35.585Z,19.80
2022-11-05T19:20:39.244Z,20.10
2022-11-05T19:25:42.134Z,17.20
2022-11-05T19:30:45.306Z,16.50
2022-11-05T19:40:50.881Z,18.30
2022-11-05T19:45:53.710Z,20.50
2022-11-05T19:50:56.535Z,20.10
2022-11-05T19:55:59.355Z,19.50
2022-11-05T20:01:02.325Z,22.40
2022-11-05T20:06:17.716Z,23.00
2022-11-05T20:11:20.625Z,20.40
2022-11-05T20:16:27.503Z,37.70
2022-11-05T20:21:30.416Z,35.60
2022-11-05T20:26:34.143Z,26.90
2022-11-05T20:31:37.032Z,25.30
2022-11-05T20:36:40.102Z,19.60
2022-11-05T20:41:43.046Z,18.80
2022-11-05T20:46:45.958Z,17.40
2022-11-05T20:51:48.839Z,15.50
2022-11-05T20:56:51.672Z,18.30
2022-11-05T21:01:54.681Z,19.30
2022-11-05T21:12:12.650Z,16.90
2022-11-05T21:17:15.524Z,18.30
2022-11-05T21:22:18.507Z,18.80
2022-11-05T21:27:21.336Z,19.60
2022-11-05T21:32:24.088Z,17.40
2022-11-05T21:37:27.312Z,16.30
2022-11-05T21:47:33.303Z,14.30
2022-11-05T21:58:18.338Z,14.50
2022-11-05T22:08:23.892Z,11.40
2022-11-05T22:13:26.718Z,13.30
2022-11-05T22:18:29.628Z,9.80
2022-11-05T22:23:32.407Z,9.70
2022-11-05T22:28:35.247Z,11.30
2022-11-05T22:33:38.054Z,10.60
2022-11-05T22:38:41.180Z,10.00
2022-11-05T22:43:44.445Z,11.50
2022-11-05T22:53:51.345Z,9.20
2022-11-05T22:58:54.856Z,12.00
2022-11-05T23:03:59.002Z,11.40
2022-11-05T23:09:22.960Z,9.90
2022-11-05T23:14:26.625Z,10.60
2022-11-05T23:19:49.063Z,13.10
2022-11-05T23:24:51.928Z,11.90
2022-11-05T23:29:58.583Z,12.50
2022-11-05T23:35:01.462Z,14.10
2022-11-05T23:40:07.990Z,13.60
2022-11-05T23:45:30.207Z,15.60
2022-11-05T23:50:37.120Z,13.80
2022-11-05T23:55:43.096Z,13.00
